sensor_id;sensor_type;location;lat;lon;timestamp;pressure;altitude;pressure_sealevel;temperature;humidity
21357;BME280;10836;53.068;18.234;2023-09-18T00:00:44;101128.69;;;13.71;100.00
21357;BME280;10836;53.068;18.234;2023-09-18T00:03:31;101126.84;;;13.51;100.00
21357;BME280;10836;53.068;18.234;2023-09-18T00:05:58;101135.75;;;13.32;100.00
21357;BME280;10836;53.068;18.234;2023-09-18T00:08:25;101133.72;;;13.48;100.00
21357;BME280;10836;53.068;18.234;2023-09-18T00:10:54;101127.47;;;13.43;100.00
21357;BME280;10836;53.068;18.234;2023-09-18T00:13:22;101125.31;;;13.35;100.00
21357;BME280;10836;53.068;18.234;2023-09-18T00:15:54;101129.47;;;13.22;100.00
21357;BME280;10836;53.068;18.234;2023-09-18T00:18:21;101131.91;;;13.28;100.00
21357;BME280;10836;53.068;18.234;2023-09-18T00:20:49;101128.53;;;13.47;100.00
21357;BME280;10836;53.068;18.234;2023-09-18T00:23:18;101125.25;;;13.45;100.00
21357;BME280;10836;53.068;18.234;2023-09-18T00:25:46;101133.03;;;13.22;100.00
21357;BME280;10836;53.068;18.234;2023-09-18T00:28:13;101130.84;;;13.24;100.00
21357;BME280;10836;53.068;18.234;2023-09-18T00:30:48;101123.09;;;13.42;100.00
21357;BME280;10836;53.068;18.234;2023-09-18T00:33:16;101118.72;;;13.41;100.00
21357;BME280;10836;53.068;18.234;2023-09-18T00:35:50;101114.66;;;13.23;100.00
21357;BME280;10836;53.068;18.234;2023-09-18T00:38:18;101109.19;;;13.13;100.00
21357;BME280;10836;53.068;18.234;2023-09-18T00:40:47;101112.78;;;13.03;100.00
21357;BME280;10836;53.068;18.234;2023-09-18T00:43:14;101114.97;;;13.01;100.00
21357;BME280;10836;53.068;18.234;2023-09-18T00:45:45;101114.97;;;13.01;100.00
21357;BME280;10836;53.068;18.234;2023-09-18T00:48:14;101104.53;;;13.08;100.00
21357;BME280;10836;53.068;18.234;2023-09-18T00:50:43;101101.88;;;12.93;100.00
21357;BME280;10836;53.068;18.234;2023-09-18T00:53:14;101100.28;;;12.72;100.00
21357;BME280;10836;53.068;18.234;2023-09-18T00:55:41;101110.13;;;12.78;100.00
21357;BME280;10836;53.068;18.234;2023-09-18T00:58:09;101105.19;;;12.85;100.00
21357;BME280;10836;53.068;18.234;2023-09-18T01:00:37;101108.38;;;13.07;100.00
21357;BME280;10836;53.068;18.234;2023-09-18T01:03:04;101103.47;;;13.04;100.00
21357;BME280;10836;53.068;18.234;2023-09-18T01:05:33;101103.53;;;12.94;100.00
21357;BME280;10836;53.068;18.234;2023-09-18T01:08:00;101106.84;;;12.76;100.00
21357;BME280;10836;53.068;18.234;2023-09-18T01:10:33;101102.47;;;12.70;100.00
21357;BME280;10836;53.068;18.234;2023-09-18T01:13:08;101106.09;;;12.55;100.00
21357;BME280;10836;53.068;18.234;2023-09-18T01:15:44;101101.94;;;12.62;100.00
21357;BME280;10836;53.068;18.234;2023-09-18T01:18:14;101100.31;;;12.61;100.00
21357;BME280;10836;53.068;18.234;2023-09-18T01:20:44;101096.78;;;12.56;100.00
21357;BME280;10836;53.068;18.234;2023-09-18T01:23:11;101102.50;;;12.64;100.00
21357;BME280;10836;53.068;18.234;2023-09-18T01:25:38;101094.81;;;12.61;100.00
21357;BME280;10836;53.068;18.234;2023-09-18T01:28:05;101097.56;;;12.56;100.00
21357;BME280;10836;53.068;18.234;2023-09-18T01:30:32;101098.94;;;12.64;100.00
21357;BME280;10836;53.068;18.234;2023-09-18T01:33:02;101095.34;;;12.69;100.00
21357;BME280;10836;53.068;18.234;2023-09-18T01:35:32;101092.59;;;12.79;100.00
21357;BME280;10836;53.068;18.234;2023-09-18T01:38:00;101103.81;;;12.87;100.00
21357;BME280;10836;53.068;18.234;2023-09-18T01:40:28;101101.34;;;12.86;100.00
21357;BME280;10836;53.068;18.234;2023-09-18T01:42:55;101103.28;;;12.80;100.00
21357;BME280;10836;53.068;18.234;2023-09-18T01:45:22;101106.88;;;12.65;100.00
21357;BME280;10836;53.068;18.234;2023-09-18T01:47:49;101105.81;;;12.46;100.00
21357;BME280;10836;53.068;18.234;2023-09-18T01:50:18;101099.00;;;12.18;100.00
21357;BME280;10836;53.068;18.234;2023-09-18T01:52:45;101100.38;;;12.11;100.00
21357;BME280;10836;53.068;18.234;2023-09-18T01:55:12;101097.63;;;12.16;100.00
21357;BME280;10836;53.068;18.234;2023-09-18T01:57:39;101092.69;;;12.23;100.00
21357;BME280;10836;53.068;18.234;2023-09-18T02:00:06;101091.06;;;12.32;100.00
21357;BME280;10836;53.068;18.234;2023-09-18T02:02:40;101090.50;;;12.35;100.00
21357;BME280;10836;53.068;18.234;2023-09-18T02:05:27;101084.47;;;12.38;100.00
21357;BME280;10836;53.068;18.234;2023-09-18T02:07:55;101079.56;;;12.25;100.00
21357;BME280;10836;53.068;18.234;2023-09-18T02:10:23;101077.38;;;12.27;100.00
21357;BME280;10836;53.068;18.234;2023-09-18T02:12:50;101083.38;;;12.19;100.00
21357;BME280;10836;53.068;18.234;2023-09-18T02:15:17;101083.38;;;12.19;100.00
21357;BME280;10836;53.068;18.234;2023-09-18T02:17:44;101080.66;;;12.19;100.00
21357;BME280;10836;53.068;18.234;2023-09-18T02:20:13;101089.94;;;12.38;100.00
21357;BME280;10836;53.068;18.234;2023-09-18T02:22:40;101079.56;;;12.25;100.00
21357;BME280;10836;53.068;18.234;2023-09-18T02:25:08;101082.84;;;12.17;100.00
21357;BME280;10836;53.068;18.234;2023-09-18T02:27:35;101079.56;;;12.25;100.00
21357;BME280;10836;53.068;18.234;2023-09-18T02:30:02;101080.09;;;12.32;100.00
21357;BME280;10836;53.068;18.234;2023-09-18T02:32:30;101079.56;;;12.25;100.00
21357;BME280;10836;53.068;18.234;2023-09-18T02:34:57;101074.34;;;12.13;100.00
21357;BME280;10836;53.068;18.234;2023-09-18T02:37:25;101075.75;;;11.90;100.00
21357;BME280;10836;53.068;18.234;2023-09-18T02:39:52;101073.56;;;11.97;100.00
21357;BME280;10836;53.068;18.234;2023-09-18T02:42:19;101068.63;;;11.84;100.00
21357;BME280;10836;53.068;18.234;2023-09-18T02:44:46;101069.72;;;11.98;100.00
21357;BME280;10836;53.068;18.234;2023-09-18T02:47:14;101071.34;;;11.79;100.00
21357;BME280;10836;53.068;18.234;2023-09-18T02:49:41;101075.72;;;11.80;100.00
21357;BME280;10836;53.068;18.234;2023-09-18T02:52:08;101067.25;;;11.82;100.00
21357;BME280;10836;53.068;18.234;2023-09-18T02:54:35;101069.13;;;11.76;100.00
21357;BME280;10836;53.068;18.234;2023-09-18T02:57:02;101069.16;;;11.81;100.00
21357;BME280;10836;53.068;18.234;2023-09-18T02:59:29;101068.63;;;11.94;100.00
21357;BME280;10836;53.068;18.234;2023-09-18T03:01:57;101071.38;;;11.94;100.00
21357;BME280;10836;53.068;18.234;2023-09-18T03:04:25;101076.28;;;11.87;100.00
21357;BME280;10836;53.068;18.234;2023-09-18T03:06:52;101069.66;;;11.73;100.00
21357;BME280;10836;53.068;18.234;2023-09-18T03:09:20;101075.69;;;11.70;100.00
21357;BME280;10836;53.068;18.234;2023-09-18T03:11:48;101061.47;;;11.63;100.00
21357;BME280;10836;53.068;18.234;2023-09-18T03:14:15;101061.75;;;11.56;100.00
21357;BME280;10836;53.068;18.234;2023-09-18T03:16:42;101059.78;;;11.47;100.00
21357;BME280;10836;53.068;18.234;2023-09-18T03:19:09;101054.34;;;11.52;100.00
21357;BME280;10836;53.068;18.234;2023-09-18T03:21:37;101057.63;;;11.54;100.00
21357;BME280;10836;53.068;18.234;2023-09-18T03:24:05;101054.91;;;11.69;100.00
21357;BME280;10836;53.068;18.234;2023-09-18T03:26:32;101059.59;;;11.84;100.00
21357;BME280;10836;53.068;18.234;2023-09-18T03:28:59;101052.75;;;11.91;100.00
21357;BME280;10836;53.068;18.234;2023-09-18T03:31:26;101059.31;;;11.85;100.00
21357;BME280;10836;53.068;18.234;2023-09-18T03:33:53;101047.81;;;11.88;100.00
21357;BME280;10836;53.068;18.234;2023-09-18T03:36:21;101040.16;;;11.80;100.00
21357;BME280;10836;53.068;18.234;2023-09-18T03:38:50;101035.78;;;11.79;100.00
21357;BME280;10836;53.068;18.234;2023-09-18T03:41:18;101028.13;;;11.81;100.00
21357;BME280;10836;53.068;18.234;2023-09-18T03:43:45;101024.28;;;11.87;100.00
21357;BME280;10836;53.068;18.234;2023-09-18T03:46:12;101023.19;;;11.93;100.00
21357;BME280;10836;53.068;18.234;2023-09-18T03:48:45;101026.22;;;11.92;100.00
21357;BME280;10836;53.068;18.234;2023-09-18T03:51:13;101016.63;;;11.79;100.00
21357;BME280;10836;53.068;18.234;2023-09-18T03:53:43;101016.03;;;11.72;100.00
21357;BME280;10836;53.068;18.234;2023-09-18T03:56:10;101014.44;;;11.81;100.00
21357;BME280;10836;53.068;18.234;2023-09-18T03:58:37;101008.16;;;11.81;100.00
21357;BME280;10836;53.068;18.234;2023-09-18T04:01:04;101006.50;;;11.80;100.00
21357;BME280;10836;53.068;18.234;2023-09-18T04:03:32;101007.06;;;11.77;100.00
21357;BME280;10836;53.068;18.234;2023-09-18T04:05:59;101000.72;;;11.76;100.00
21357;BME280;10836;53.068;18.234;2023-09-18T04:08:26;100999.09;;;11.75;100.00
21357;BME280;10836;53.068;18.234;2023-09-18T04:10:54;100994.72;;;11.49;100.00
21357;BME280;10836;53.068;18.234;2023-09-18T04:13:24;100999.38;;;11.48;100.00
21357;BME280;10836;53.068;18.234;2023-09-18T04:15:52;100992.53;;;11.51;100.00
21357;BME280;10836;53.068;18.234;2023-09-18T04:18:24;100985.97;;;11.47;100.00
21357;BME280;10836;53.068;18.234;2023-09-18T04:20:51;100981.88;;;11.54;100.00
21357;BME280;10836;53.068;18.234;2023-09-18T04:23:20;100982.16;;;11.78;100.00
21357;BME280;10836;53.068;18.234;2023-09-18T04:25:50;100975.84;;;11.93;100.00
21357;BME280;10836;53.068;18.234;2023-09-18T04:28:18;100985.44;;;12.01;100.00
21357;BME280;10836;53.068;18.234;2023-09-18T04:30:46;100979.97;;;11.90;100.00
21357;BME280;10836;53.068;18.234;2023-09-18T04:33:14;100983.25;;;11.82;100.00
21357;BME280;10836;53.068;18.234;2023-09-18T04:35:43;100981.59;;;11.81;100.00
21357;BME280;10836;53.068;18.234;2023-09-18T04:38:11;100979.41;;;11.78;100.00
21357;BME280;10836;53.068;18.234;2023-09-18T04:40:39;100977.22;;;11.85;100.00
21357;BME280;10836;53.068;18.234;2023-09-18T04:43:08;100976.69;;;11.98;100.00
21357;BME280;10836;53.068;18.234;2023-09-18T04:45:35;100967.38;;;11.94;100.00
21357;BME280;10836;53.068;18.234;2023-09-18T04:48:03;100975.03;;;11.97;100.00
21357;BME280;10836;53.068;18.234;2023-09-18T04:50:33;100974.47;;;12.06;100.00
21357;BME280;10836;53.068;18.234;2023-09-18T04:53:01;100975.53;;;12.20;100.00
21357;BME280;10836;53.068;18.234;2023-09-18T04:55:28;100972.22;;;12.23;100.00
21357;BME280;10836;53.068;18.234;2023-09-18T04:57:55;100977.47;;;12.09;100.00
21357;BME280;10836;53.068;18.234;2023-09-18T05:00:26;100971.41;;;12.22;100.00
21357;BME280;10836;53.068;18.234;2023-09-18T05:02:53;100985.88;;;12.38;100.00
21357;BME280;10836;53.068;18.234;2023-09-18T05:05:21;100982.56;;;12.46;100.00
21357;BME280;10836;53.068;18.234;2023-09-18T05:07:48;100982.31;;;12.43;100.00
21357;BME280;10836;53.068;18.234;2023-09-18T05:10:15;100980.16;;;12.35;100.00
21357;BME280;10836;53.068;18.234;2023-09-18T05:12:42;100979.81;;;12.51;100.00
21357;BME280;10836;53.068;18.234;2023-09-18T05:15:09;100981.47;;;12.47;100.00
21357;BME280;10836;53.068;18.234;2023-09-18T05:17:45;100985.03;;;12.53;100.00
21357;BME280;10836;53.068;18.234;2023-09-18T05:20:19;100980.28;;;12.69;100.00
21357;BME280;10836;53.068;18.234;2023-09-18T05:22:46;100979.13;;;12.85;100.00
21357;BME280;10836;53.068;18.234;2023-09-18T05:25:13;100976.25;;;13.05;100.00
21357;BME280;10836;53.068;18.234;2023-09-18T05:27:43;100971.56;;;13.16;100.00
21357;BME280;10836;53.068;18.234;2023-09-18T05:30:15;100973.41;;;13.25;100.00
21357;BME280;10836;53.068;18.234;2023-09-18T05:32:43;100968.97;;;13.35;100.00
21357;BME280;10836;53.068;18.234;2023-09-18T05:35:11;100978.75;;;13.46;100.00
21357;BME280;10836;53.068;18.234;2023-09-18T05:37:41;100976.13;;;13.64;100.00
21357;BME280;10836;53.068;18.234;2023-09-18T05:40:10;100973.50;;;13.83;100.00
21357;BME280;10836;53.068;18.234;2023-09-18T05:42:38;100971.13;;;14.01;100.00
21357;BME280;10836;53.068;18.234;2023-09-18T05:45:06;100966.41;;;14.30;100.00
21357;BME280;10836;53.068;18.234;2023-09-18T05:47:33;100965.25;;;14.36;100.00
21357;BME280;10836;53.068;18.234;2023-09-18T05:50:02;100954.66;;;14.53;100.00
21357;BME280;10836;53.068;18.234;2023-09-18T05:52:34;100954.22;;;14.84;100.00
21357;BME280;10836;53.068;18.234;2023-09-18T05:55:04;100954.56;;;15.01;100.00
21357;BME280;10836;53.068;18.234;2023-09-18T05:57:32;100959.44;;;15.23;100.00
21357;BME280;10836;53.068;18.234;2023-09-18T05:59:59;100961.66;;;15.40;100.00
21357;BME280;10836;53.068;18.234;2023-09-18T06:02:26;100955.84;;;15.60;100.00
21357;BME280;10836;53.068;18.234;2023-09-18T06:04:57;100951.13;;;15.79;100.00
21357;BME280;10836;53.068;18.234;2023-09-18T06:07:27;100952.66;;;15.85;100.00
21357;BME280;10836;53.068;18.234;2023-09-18T06:09:54;100953.59;;;15.94;100.00
21357;BME280;10836;53.068;18.234;2023-09-18T06:12:21;100955.34;;;16.18;100.00
21357;BME280;10836;53.068;18.234;2023-09-18T06:14:49;100958.34;;;16.35;100.00
21357;BME280;10836;53.068;18.234;2023-09-18T06:17:16;100955.16;;;16.28;100.00
21357;BME280;10836;53.068;18.234;2023-09-18T06:19:45;100958.13;;;16.32;100.00
21357;BME280;10836;53.068;18.234;2023-09-18T06:22:13;100944.63;;;16.57;100.00
21357;BME280;10836;53.068;18.234;2023-09-18T06:24:40;100947.97;;;16.95;100.00
21357;BME280;10836;53.068;18.234;2023-09-18T06:27:07;100947.84;;;17.37;100.00
21357;BME280;10836;53.068;18.234;2023-09-18T06:29:34;100943.97;;;18.13;100.00
21357;BME280;10836;53.068;18.234;2023-09-18T06:32:05;100933.75;;;18.62;100.00
21357;BME280;10836;53.068;18.234;2023-09-18T06:34:32;100934.13;;;19.04;100.00
21357;BME280;10836;53.068;18.234;2023-09-18T06:37:00;100929.25;;;20.08;100.00
21357;BME280;10836;53.068;18.234;2023-09-18T06:39:27;100943.84;;;21.35;100.00
21357;BME280;10836;53.068;18.234;2023-09-18T06:41:54;100939.94;;;22.75;92.15
21357;BME280;10836;53.068;18.234;2023-09-18T06:44:20;100932.63;;;24.06;82.52
21357;BME280;10836;53.068;18.234;2023-09-18T06:46:50;100933.41;;;25.63;68.87
21357;BME280;10836;53.068;18.234;2023-09-18T06:49:17;100936.56;;;26.98;62.22
21357;BME280;10836;53.068;18.234;2023-09-18T06:51:47;100934.31;;;28.15;56.34
21357;BME280;10836;53.068;18.234;2023-09-18T06:54:14;100940.34;;;27.76;54.62
21357;BME280;10836;53.068;18.234;2023-09-18T06:56:42;100926.47;;;27.57;55.36
21357;BME280;10836;53.068;18.234;2023-09-18T06:59:11;100920.56;;;29.12;50.36
21357;BME280;10836;53.068;18.234;2023-09-18T07:01:41;100913.22;;;28.90;50.69
21357;BME280;10836;53.068;18.234;2023-09-18T07:04:08;100914.16;;;29.16;49.31
21357;BME280;10836;53.068;18.234;2023-09-18T07:06:36;100901.22;;;28.93;50.72
21357;BME280;10836;53.068;18.234;2023-09-18T07:09:04;100918.19;;;28.05;51.78
21357;BME280;10836;53.068;18.234;2023-09-18T07:11:34;100910.50;;;29.08;49.18
21357;BME280;10836;53.068;18.234;2023-09-18T07:14:01;100910.16;;;29.24;47.85
21357;BME280;10836;53.068;18.234;2023-09-18T07:16:29;100912.03;;;30.17;45.77
21357;BME280;10836;53.068;18.234;2023-09-18T07:18:56;100910.09;;;29.02;49.44
21357;BME280;10836;53.068;18.234;2023-09-18T07:21:23;100901.16;;;30.05;46.57
21357;BME280;10836;53.068;18.234;2023-09-18T07:23:50;100910.19;;;31.37;42.22
21357;BME280;10836;53.068;18.234;2023-09-18T07:26:18;100910.28;;;31.16;42.53
21357;BME280;10836;53.068;18.234;2023-09-18T07:28:45;100908.75;;;30.79;43.54
21357;BME280;10836;53.068;18.234;2023-09-18T07:31:12;100903.94;;;30.55;44.11
21357;BME280;10836;53.068;18.234;2023-09-18T07:33:41;100904.88;;;32.08;40.45
21357;BME280;10836;53.068;18.234;2023-09-18T07:36:08;100907.28;;;32.10;39.79
21357;BME280;10836;53.068;18.234;2023-09-18T07:38:37;100904.00;;;30.26;44.39
21357;BME280;10836;53.068;18.234;2023-09-18T07:41:10;100910.13;;;32.10;39.69
21357;BME280;10836;53.068;18.234;2023-09-18T07:43:37;100908.50;;;31.50;41.61
21357;BME280;10836;53.068;18.234;2023-09-18T07:46:06;100895.06;;;32.27;40.28
21357;BME280;10836;53.068;18.234;2023-09-18T07:48:32;100896.63;;;32.35;39.87
21357;BME280;10836;53.068;18.234;2023-09-18T07:51:01;100893.06;;;33.03;38.05
21357;BME280;10836;53.068;18.234;2023-09-18T07:53:28;100893.63;;;34.09;36.62
21357;BME280;10836;53.068;18.234;2023-09-18T07:55:56;100895.81;;;34.48;34.33
21357;BME280;10836;53.068;18.234;2023-09-18T07:58:31;100889.16;;;32.52;38.46
21357;BME280;10836;53.068;18.234;2023-09-18T08:01:00;100892.25;;;31.72;40.36
21357;BME280;10836;53.068;18.234;2023-09-18T08:03:27;100883.69;;;32.79;39.40
21357;BME280;10836;53.068;18.234;2023-09-18T08:05:55;100884.09;;;31.85;40.01
21357;BME280;10836;53.068;18.234;2023-09-18T08:08:22;100885.19;;;31.32;40.41
21357;BME280;10836;53.068;18.234;2023-09-18T08:10:51;100885.56;;;32.03;40.56
21357;BME280;10836;53.068;18.234;2023-09-18T08:13:19;100888.81;;;32.02;40.52
21357;BME280;10836;53.068;18.234;2023-09-18T08:15:46;100881.03;;;32.95;38.17
21357;BME280;10836;53.068;18.234;2023-09-18T08:18:14;100883.22;;;31.22;40.44
21357;BME280;10836;53.068;18.234;2023-09-18T08:20:42;100881.44;;;31.56;40.10
21357;BME280;10836;53.068;18.234;2023-09-18T08:23:10;100884.31;;;31.49;40.30
21357;BME280;10836;53.068;18.234;2023-09-18T08:25:37;100881.63;;;31.94;39.76
21357;BME280;10836;53.068;18.234;2023-09-18T08:28:04;100873.38;;;33.30;37.59
21357;BME280;10836;53.068;18.234;2023-09-18T08:30:36;100874.38;;;33.13;37.31
21357;BME280;10836;53.068;18.234;2023-09-18T08:33:04;100862.81;;;33.61;35.57
21357;BME280;10836;53.068;18.234;2023-09-18T08:35:32;100852.84;;;33.49;38.08
21357;BME280;10836;53.068;18.234;2023-09-18T08:38:00;100849.59;;;33.78;37.09
21357;BME280;10836;53.068;18.234;2023-09-18T08:40:27;100850.19;;;34.39;35.22
21357;BME280;10836;53.068;18.234;2023-09-18T08:42:55;100853.56;;;33.30;35.42
21357;BME280;10836;53.068;18.234;2023-09-18T08:45:27;100850.34;;;33.82;35.87
21357;BME280;10836;53.068;18.234;2023-09-18T08:47:56;100847.91;;;34.74;34.20
21357;BME280;10836;53.068;18.234;2023-09-18T08:50:24;100840.41;;;33.13;35.73
21357;BME280;10836;53.068;18.234;2023-09-18T08:52:52;100828.34;;;33.39;35.97
21357;BME280;10836;53.068;18.234;2023-09-18T08:55:20;100826.44;;;32.98;37.24
21357;BME280;10836;53.068;18.234;2023-09-18T08:57:47;100818.38;;;32.97;36.70
21357;BME280;10836;53.068;18.234;2023-09-18T09:00:16;100817.84;;;31.37;38.99
21357;BME280;10836;53.068;18.234;2023-09-18T09:02:46;100798.06;;;33.05;37.61
21357;BME280;10836;53.068;18.234;2023-09-18T09:05:18;100798.06;;;33.05;36.64
21357;BME280;10836;53.068;18.234;2023-09-18T09:07:45;100797.13;;;32.10;38.66
21357;BME280;10836;53.068;18.234;2023-09-18T09:10:12;100793.00;;;34.44;34.33
21357;BME280;10836;53.068;18.234;2023-09-18T09:15:17;100800.09;;;35.12;32.81
21357;BME280;10836;53.068;18.234;2023-09-18T09:17:44;100792.41;;;33.05;35.96
21357;BME280;10836;53.068;18.234;2023-09-18T09:20:14;100795.59;;;33.65;34.50
21357;BME280;10836;53.068;18.234;2023-09-18T09:22:41;100796.22;;;32.58;38.39
21357;BME280;10836;53.068;18.234;2023-09-18T09:25:25;100796.84;;;34.74;33.06
21357;BME280;10836;53.068;18.234;2023-09-18T09:27:55;100793.06;;;35.36;31.59
21357;BME280;10836;53.068;18.234;2023-09-18T09:30:24;100783.63;;;32.66;34.99
21357;BME280;10836;53.068;18.234;2023-09-18T09:32:53;100778.91;;;32.15;36.88
21357;BME280;10836;53.068;18.234;2023-09-18T09:35:21;100771.03;;;33.82;34.48
21357;BME280;10836;53.068;18.234;2023-09-18T09:37:50;100768.06;;;33.65;35.14
21357;BME280;10836;53.068;18.234;2023-09-18T09:40:20;100760.16;;;31.46;38.46
21357;BME280;10836;53.068;18.234;2023-09-18T09:42:51;100752.97;;;30.54;39.57
21357;BME280;10836;53.068;18.234;2023-09-18T09:45:18;100741.53;;;33.02;36.97
21357;BME280;10836;53.068;18.234;2023-09-18T09:47:46;100738.94;;;33.15;35.41
21357;BME280;10836;53.068;18.234;2023-09-18T09:50:15;100747.28;;;33.76;35.21
21357;BME280;10836;53.068;18.234;2023-09-18T09:52:45;100734.41;;;34.38;33.57
21357;BME280;10836;53.068;18.234;2023-09-18T09:58:01;100724.84;;;33.61;34.39
21357;BME280;10836;53.068;18.234;2023-09-18T10:03:15;100730.56;;;35.04;32.31
21357;BME280;10836;53.068;18.234;2023-09-18T10:05:45;100726.78;;;32.57;36.41
21357;BME280;10836;53.068;18.234;2023-09-18T10:08:21;100717.75;;;34.40;33.75
21357;BME280;10836;53.068;18.234;2023-09-18T10:10:51;100711.06;;;33.87;34.22
21357;BME280;10836;53.068;18.234;2023-09-18T10:13:23;100718.25;;;34.34;33.23
21357;BME280;10836;53.068;18.234;2023-09-18T10:15:53;100717.75;;;32.69;35.37
21357;BME280;10836;53.068;18.234;2023-09-18T10:18:27;100700.03;;;32.65;36.42
21357;BME280;10836;53.068;18.234;2023-09-18T10:21:48;100698.59;;;32.50;37.97
21357;BME280;10836;53.068;18.234;2023-09-18T10:23:59;100686.78;;;34.09;34.38
21357;BME280;10836;53.068;18.234;2023-09-18T10:26:35;100697.13;;;31.07;38.51
21357;BME280;10836;53.068;18.234;2023-09-18T10:29:06;100693.53;;;32.37;37.70
21357;BME280;10836;53.068;18.234;2023-09-18T10:31:36;100681.88;;;32.32;36.75
21357;BME280;10836;53.068;18.234;2023-09-18T10:34:04;100697.84;;;30.53;40.30
21357;BME280;10836;53.068;18.234;2023-09-18T10:36:33;100693.28;;;32.21;37.94
21357;BME280;10836;53.068;18.234;2023-09-18T10:39:01;100680.97;;;31.19;39.56
21357;BME280;10836;53.068;18.234;2023-09-18T10:41:36;100682.91;;;32.11;37.63
21357;BME280;10836;53.068;18.234;2023-09-18T10:44:04;100684.47;;;32.50;36.85
21357;BME280;10836;53.068;18.234;2023-09-18T10:46:31;100675.97;;;31.82;38.11
21357;BME280;10836;53.068;18.234;2023-09-18T10:49:00;100678.91;;;32.08;37.66
21357;BME280;10836;53.068;18.234;2023-09-18T10:51:28;100679.47;;;32.61;37.33
21357;BME280;10836;53.068;18.234;2023-09-18T10:53:56;100670.13;;;31.14;39.03
21357;BME280;10836;53.068;18.234;2023-09-18T10:56:24;100668.63;;;30.91;39.02
21357;BME280;10836;53.068;18.234;2023-09-18T10:58:59;100668.59;;;30.25;40.28
21357;BME280;10836;53.068;18.234;2023-09-18T11:01:29;100678.38;;;30.80;39.86
21357;BME280;10836;53.068;18.234;2023-09-18T11:04:01;100668.66;;;32.25;36.71
21357;BME280;10836;53.068;18.234;2023-09-18T11:06:30;100658.72;;;31.28;38.07
21357;BME280;10836;53.068;18.234;2023-09-18T11:09:07;100662.72;;;31.30;38.24
21357;BME280;10836;53.068;18.234;2023-09-18T11:11:34;100665.59;;;32.43;35.76
21357;BME280;10836;53.068;18.234;2023-09-18T11:14:02;100662.09;;;31.98;37.04
21357;BME280;10836;53.068;18.234;2023-09-18T11:16:37;100667.78;;;31.94;36.73
21357;BME280;10836;53.068;18.234;2023-09-18T11:19:16;100659.19;;;30.60;38.64
21357;BME280;10836;53.068;18.234;2023-09-18T11:21:45;100661.63;;;32.37;36.48
21357;BME280;10836;53.068;18.234;2023-09-18T11:24:21;100656.56;;;30.91;37.85
21357;BME280;10836;53.068;18.234;2023-09-18T11:26:50;100654.47;;;31.54;36.95
21357;BME280;10836;53.068;18.234;2023-09-18T11:29:22;100663.09;;;32.49;35.20
21357;BME280;10836;53.068;18.234;2023-09-18T11:31:56;100664.34;;;30.72;37.27
21357;BME280;10836;53.068;18.234;2023-09-18T11:34:32;100646.53;;;30.83;38.96
21357;BME280;10836;53.068;18.234;2023-09-18T11:37:19;100636.88;;;30.80;39.16
21357;BME280;10836;53.068;18.234;2023-09-18T11:39:46;100634.97;;;31.22;38.40
21357;BME280;10836;53.068;18.234;2023-09-18T11:42:17;100622.97;;;32.30;34.83
21357;BME280;10836;53.068;18.234;2023-09-18T11:44:44;100612.13;;;31.91;34.67
21357;BME280;10836;53.068;18.234;2023-09-18T11:47:19;100618.97;;;32.28;33.43
21357;BME280;10836;53.068;18.234;2023-09-18T11:49:54;100607.66;;;33.09;31.79
21357;BME280;10836;53.068;18.234;2023-09-18T11:52:27;100611.38;;;31.87;34.97
21357;BME280;10836;53.068;18.234;2023-09-18T11:54:56;100617.00;;;31.01;35.28
21357;BME280;10836;53.068;18.234;2023-09-18T11:57:24;100607.25;;;31.17;33.79
21357;BME280;10836;53.068;18.234;2023-09-18T11:59:51;100607.78;;;32.78;31.76
21357;BME280;10836;53.068;18.234;2023-09-18T12:02:27;100598.13;;;32.15;33.56
21357;BME280;10836;53.068;18.234;2023-09-18T12:04:55;100591.66;;;33.88;29.77
21357;BME280;10836;53.068;18.234;2023-09-18T12:07:23;100597.28;;;32.18;32.67
21357;BME280;10836;53.068;18.234;2023-09-18T12:09:51;100595.63;;;31.52;33.81
21357;BME280;10836;53.068;18.234;2023-09-18T12:12:20;100597.50;;;31.21;35.06
21357;BME280;10836;53.068;18.234;2023-09-18T12:14:47;100596.81;;;31.06;34.81
21357;BME280;10836;53.068;18.234;2023-09-18T12:17:16;100595.81;;;30.13;37.63
21357;BME280;10836;53.068;18.234;2023-09-18T12:19:55;100596.38;;;30.53;37.26
21357;BME280;10836;53.068;18.234;2023-09-18T12:22:27;100583.66;;;32.09;34.10
21357;BME280;10836;53.068;18.234;2023-09-18T12:25:10;100582.59;;;32.30;33.72
21357;BME280;10836;53.068;18.234;2023-09-18T12:27:41;100562.94;;;32.19;33.30
21357;BME280;10836;53.068;18.234;2023-09-18T12:30:09;100575.94;;;31.83;34.10
21357;BME280;10836;53.068;18.234;2023-09-18T12:32:38;100571.34;;;32.26;32.96
21357;BME280;10836;53.068;18.234;2023-09-18T12:35:06;100572.09;;;32.00;33.23
21357;BME280;10836;53.068;18.234;2023-09-18T12:37:34;100564.69;;;30.93;34.69
21357;BME280;10836;53.068;18.234;2023-09-18T12:40:02;100564.09;;;31.95;32.91
21357;BME280;10836;53.068;18.234;2023-09-18T12:42:38;100573.72;;;32.31;31.51
21357;BME280;10836;53.068;18.234;2023-09-18T12:45:07;100559.19;;;31.99;31.28
21357;BME280;10836;53.068;18.234;2023-09-18T12:47:35;100561.59;;;30.77;33.54
21357;BME280;10836;53.068;18.234;2023-09-18T12:50:06;100560.09;;;30.69;35.41
21357;BME280;10836;53.068;18.234;2023-09-18T12:52:33;100556.97;;;31.46;33.70